Time;durP1;ratioP1;P1;durP2;ratioP2;P2;SDS_P1;SDS_P2;PMS_P1;PMS_P2;Temp;Humidity;BMP_temperature;BMP_pressure;BME280_temperature;BME280_humidity;BME280_pressure;Samples;Min_cycle;Max_cycle;Signal;HPM_P1;HPM_P2
2023/09/29 00:00:32;;;;;;;13.77;12.33;;;;;;;;;;5072913;28;20449;-62
2023/09/29 00:03:01;;;;;;;12.73;11.60;;;;;;;;;;5072845;28;20444;-61
2023/09/29 00:05:31;;;;;;;12.77;11.60;;;;;;;;;;5072722;28;20455;-61
2023/09/29 00:07:58;;;;;;;13.27;12.00;;;;;;;;;;5072616;28;20447;-61
2023/09/29 00:10:25;;;;;;;12.43;11.20;;;;;;;;;;5072847;28;20443;-61
2023/09/29 00:12:52;;;;;;;11.90;10.80;;;;;;;;;;5072725;28;20534;-61
2023/09/29 00:15:19;;;;;;;11.77;10.73;;;;;;;;;;5072440;28;21076;-61
2023/09/29 00:17:48;;;;;;;13.57;11.33;;;;;;;;;;5072667;28;20447;-61
2023/09/29 00:20:21;;;;;;;12.53;11.33;;;;;;;;;;5072588;28;20505;-62
2023/09/29 00:22:48;;;;;;;12.83;10.50;;;;;;;;;;5072818;28;20833;-62
2023/09/29 00:25:17;;;;;;;11.70;10.70;;;;;;;;;;5072597;28;20443;-61
2023/09/29 00:27:46;;;;;;;11.77;10.77;;;;;;;;;;5072528;28;20443;-61
2023/09/29 00:30:14;;;;;;;13.63;12.33;;;;;;;;;;5072520;28;20557;-61
2023/09/29 00:32:45;;;;;;;12.40;11.30;;;;;;;;;;5072407;28;20564;-61
2023/09/29 00:35:21;;;;;;;12.00;10.97;;;;;;;;;;5072261;28;20486;-61
2023/09/29 00:37:50;;;;;;;11.67;10.70;;;;;;;;;;5072321;28;20463;-61
2023/09/29 00:40:17;;;;;;;12.13;11.13;;;;;;;;;;5072421;28;20534;-61
2023/09/29 00:42:44;;;;;;;11.67;10.77;;;;;;;;;;5072311;28;20530;-62
2023/09/29 00:45:12;;;;;;;12.40;11.33;;;;;;;;;;5072219;28;20436;-61
2023/09/29 00:47:39;;;;;;;11.93;10.90;;;;;;;;;;5072104;28;20531;-61
2023/09/29 00:50:07;;;;;;;12.93;11.83;;;;;;;;;;5072414;28;20530;-61
2023/09/29 00:52:37;;;;;;;11.23;10.27;;;;;;;;;;5072320;28;20553;-61
2023/09/29 00:55:05;;;;;;;11.47;10.53;;;;;;;;;;5072250;28;20574;-61
2023/09/29 00:57:33;;;;;;;12.20;11.23;;;;;;;;;;5072186;28;20795;-61
2023/09/29 01:00:04;;;;;;;11.80;10.70;;;;;;;;;;5074302;28;20475;-61
2023/09/29 01:02:31;;;;;;;12.20;11.07;;;;;;;;;;5075869;28;20525;-61
2023/09/29 01:04:58;;;;;;;11.97;10.97;;;;;;;;;;5075696;28;20479;-61
2023/09/29 01:07:25;;;;;;;12.63;11.43;;;;;;;;;;5075640;28;20443;-61
2023/09/29 01:09:53;;;;;;;11.70;10.60;;;;;;;;;;5075629;28;20447;-61
2023/09/29 01:12:27;;;;;;;12.00;10.90;;;;;;;;;;5075380;28;20455;-61
2023/09/29 01:14:54;;;;;;;11.70;10.70;;;;;;;;;;5075594;28;20471;-61
2023/09/29 01:17:21;;;;;;;11.83;10.63;;;;;;;;;;5075516;28;20447;-61
2023/09/29 01:19:49;;;;;;;12.10;10.97;;;;;;;;;;5075438;28;20443;-61
2023/09/29 01:22:16;;;;;;;11.13;10.23;;;;;;;;;;5075400;28;20803;-60
2023/09/29 01:24:45;;;;;;;12.23;11.10;;;;;;;;;;5075284;28;20448;-61
2023/09/29 01:27:12;;;;;;;11.27;10.17;;;;;;;;;;5075200;28;20542;-62
2023/09/29 01:29:41;;;;;;;11.60;10.60;;;;;;;;;;5075110;28;20532;-62
2023/09/29 01:32:11;;;;;;;11.83;10.67;;;;;;;;;;5075057;28;20976;-62
2023/09/29 01:34:38;;;;;;;12.37;11.37;;;;;;;;;;5075159;28;20448;-62
2023/09/29 01:37:05;;;;;;;12.17;11.17;;;;;;;;;;5074912;28;20479;-62
2023/09/29 01:39:32;;;;;;;11.23;10.03;;;;;;;;;;5074915;28;20534;-62
2023/09/29 01:42:01;;;;;;;11.87;10.97;;;;;;;;;;5075155;28;20454;-62
2023/09/29 01:44:28;;;;;;;11.57;10.57;;;;;;;;;;5075061;28;20454;-62
2023/09/29 01:46:56;;;;;;;13.00;11.70;;;;;;;;;;5074992;28;20454;-62
2023/09/29 01:49:23;;;;;;;12.77;11.57;;;;;;;;;;5074791;28;21021;-62
2023/09/29 01:51:51;;;;;;;12.20;11.10;;;;;;;;;;5074746;28;20479;-62
2023/09/29 01:54:18;;;;;;;11.23;10.20;;;;;;;;;;5074656;28;20443;-62
2023/09/29 01:56:44;;;;;;;11.40;10.30;;;;;;;;;;5074713;28;20483;-62
2023/09/29 01:59:13;;;;;;;12.73;11.50;;;;;;;;;;5074870;28;21004;-62
2023/09/29 02:01:40;;;;;;;12.07;10.90;;;;;;;;;;5074679;28;20448;-62
2023/09/29 02:04:07;;;;;;;13.60;12.20;;;;;;;;;;5074574;28;20440;-62
2023/09/29 02:06:34;;;;;;;12.57;11.30;;;;;;;;;;5074402;28;20463;-62
2023/09/29 02:09:01;;;;;;;11.47;10.43;;;;;;;;;;5074609;28;20443;-62
2023/09/29 02:11:28;;;;;;;10.97;9.97;;;;;;;;;;5074044;28;20958;-62
2023/09/29 02:13:55;;;;;;;11.60;10.50;;;;;;;;;;5074356;28;20447;-62
2023/09/29 02:16:23;;;;;;;11.77;10.10;;;;;;;;;;5074265;28;20471;-62
2023/09/29 02:18:50;;;;;;;11.10;10.00;;;;;;;;;;5074220;28;20444;-62
2023/09/29 02:21:22;;;;;;;11.37;10.37;;;;;;;;;;5074059;28;20443;-62
2023/09/29 02:23:49;;;;;;;12.03;10.77;;;;;;;;;;5074261;28;20448;-62
2023/09/29 02:26:16;;;;;;;11.50;10.60;;;;;;;;;;5074211;28;20534;-62
2023/09/29 02:28:44;;;;;;;12.57;10.67;;;;;;;;;;5074110;28;20440;-62
2023/09/29 02:31:13;;;;;;;11.87;10.77;;;;;;;;;;5073946;28;21006;-62
2023/09/29 02:33:41;;;;;;;12.73;11.30;;;;;;;;;;5073799;28;20444;-62
2023/09/29 02:36:08;;;;;;;12.73;10.60;;;;;;;;;;5073958;28;20574;-62
2023/09/29 02:38:36;;;;;;;12.17;10.97;;;;;;;;;;5073632;28;20560;-62
2023/09/29 02:41:07;;;;;;;10.83;9.83;;;;;;;;;;5073834;28;20447;-62
2023/09/29 02:43:34;;;;;;;11.40;10.30;;;;;;;;;;5073805;28;20443;-62
2023/09/29 02:46:01;;;;;;;11.17;10.17;;;;;;;;;;5073607;28;20447;-62
2023/09/29 02:48:28;;;;;;;11.60;10.60;;;;;;;;;;5073868;28;20454;-62
2023/09/29 02:50:56;;;;;;;10.77;9.97;;;;;;;;;;5073761;28;20447;-62
2023/09/29 02:53:23;;;;;;;12.37;11.30;;;;;;;;;;5073490;28;20454;-62
2023/09/29 02:55:51;;;;;;;11.63;10.53;;;;;;;;;;5073473;28;20842;-62
2023/09/29 02:58:19;;;;;;;12.80;11.50;;;;;;;;;;5073565;28;20443;-62
2023/09/29 03:00:47;;;;;;;11.47;10.33;;;;;;;;;;5073250;28;20447;-62
2023/09/29 03:03:17;;;;;;;13.77;12.67;;;;;;;;;;5073337;28;20943;-62
2023/09/29 03:05:44;;;;;;;13.00;11.70;;;;;;;;;;5073478;28;20486;-62
2023/09/29 03:08:15;;;;;;;12.23;10.93;;;;;;;;;;5073447;28;20832;-62
2023/09/29 03:10:43;;;;;;;16.50;11.53;;;;;;;;;;5073435;28;20459;-62
2023/09/29 03:13:11;;;;;;;12.43;11.23;;;;;;;;;;5073229;28;20439;-62
2023/09/29 03:15:41;;;;;;;12.33;11.23;;;;;;;;;;5073077;28;20475;-62
2023/09/29 03:18:09;;;;;;;12.43;11.33;;;;;;;;;;5073359;28;20447;-62
2023/09/29 03:20:36;;;;;;;12.10;10.80;;;;;;;;;;5073276;28;20443;-62
2023/09/29 03:23:04;;;;;;;12.40;11.30;;;;;;;;;;5072490;28;20535;-62
2023/09/29 03:25:32;;;;;;;11.43;10.53;;;;;;;;;;5073100;28;20447;-62
2023/09/29 03:28:01;;;;;;;11.10;10.20;;;;;;;;;;5072998;28;20443;-62
2023/09/29 03:30:29;;;;;;;10.20;9.40;;;;;;;;;;5073140;28;20526;-62
2023/09/29 03:32:57;;;;;;;11.47;10.47;;;;;;;;;;5073113;28;20475;-62
2023/09/29 03:35:24;;;;;;;16.30;11.90;;;;;;;;;;5072955;28;20938;-62
2023/09/29 03:37:51;;;;;;;11.57;10.47;;;;;;;;;;5072849;28;20585;-62
2023/09/29 03:40:18;;;;;;;12.87;10.73;;;;;;;;;;5072811;28;20439;-62
2023/09/29 03:42:46;;;;;;;11.37;10.37;;;;;;;;;;5073097;28;20526;-62
2023/09/29 03:45:14;;;;;;;12.50;11.40;;;;;;;;;;5072935;28;20486;-62
2023/09/29 03:47:42;;;;;;;11.10;10.10;;;;;;;;;;5072957;28;20516;-62
2023/09/29 03:50:11;;;;;;;12.27;11.07;;;;;;;;;;5072860;28;20831;-62
2023/09/29 03:52:39;;;;;;;11.60;10.70;;;;;;;;;;5072727;28;20526;-62
2023/09/29 03:55:09;;;;;;;11.37;10.47;;;;;;;;;;5072903;28;20466;-61
2023/09/29 03:57:37;;;;;;;12.13;10.93;;;;;;;;;;5072807;28;21047;-61
2023/09/29 04:00:09;;;;;;;12.20;11.00;;;;;;;;;;5072861;28;20538;-61
2023/09/29 04:02:35;;;;;;;11.50;10.37;;;;;;;;;;5072594;28;21022;-61
2023/09/29 04:05:04;;;;;;;12.27;11.07;;;;;;;;;;5072727;28;20537;-61
2023/09/29 04:07:31;;;;;;;12.47;11.37;;;;;;;;;;5072518;28;20785;-62
2023/09/29 04:09:57;;;;;;;11.70;10.70;;;;;;;;;;5072713;28;20530;-62
2023/09/29 04:12:24;;;;;;;13.97;11.07;;;;;;;;;;5072744;28;20443;-61
2023/09/29 04:14:53;;;;;;;11.70;10.50;;;;;;;;;;5072691;28;20530;-62
2023/09/29 04:17:21;;;;;;;16.27;11.27;;;;;;;;;;5072550;28;20483;-61
2023/09/29 04:19:48;;;;;;;10.83;9.80;;;;;;;;;;5072466;28;20539;-62
2023/09/29 04:22:16;;;;;;;12.70;10.33;;;;;;;;;;5072780;28;20855;-61
2023/09/29 04:24:45;;;;;;;11.20;10.20;;;;;;;;;;5072642;28;20452;-61
2023/09/29 04:27:11;;;;;;;11.87;10.63;;;;;;;;;;5072579;28;20466;-61
2023/09/29 04:29:38;;;;;;;11.70;10.80;;;;;;;;;;5072542;28;20530;-61
2023/09/29 04:32:07;;;;;;;12.50;11.40;;;;;;;;;;5072460;28;20454;-61
2023/09/29 04:34:35;;;;;;;12.80;11.20;;;;;;;;;;5075682;28;20546;-61
2023/09/29 04:37:02;;;;;;;11.07;9.87;;;;;;;;;;5076011;28;20913;-61
2023/09/29 04:39:29;;;;;;;12.87;11.67;;;;;;;;;;5076283;28;20447;-61
2023/09/29 04:41:56;;;;;;;12.57;11.37;;;;;;;;;;5076099;28;20533;-61
2023/09/29 04:44:23;;;;;;;14.87;10.53;;;;;;;;;;5075982;28;20542;-61
2023/09/29 04:46:50;;;;;;;12.97;11.67;;;;;;;;;;5075844;28;20883;-62
2023/09/29 04:49:17;;;;;;;13.10;11.67;;;;;;;;;;5075778;28;20526;-61
2023/09/29 04:51:45;;;;;;;11.70;10.60;;;;;;;;;;5075962;28;20485;-61
2023/09/29 04:54:12;;;;;;;12.67;11.23;;;;;;;;;;5075960;28;20874;-61
2023/09/29 04:56:39;;;;;;;13.40;12.17;;;;;;;;;;5075720;28;20502;-61
2023/09/29 04:59:06;;;;;;;10.87;9.90;;;;;;;;;;5075804;28;20443;-61
2023/09/29 05:01:33;;;;;;;12.27;10.40;;;;;;;;;;5075562;28;20443;-61
2023/09/29 05:04:00;;;;;;;13.00;10.80;;;;;;;;;;5075905;28;20475;-61
2023/09/29 05:06:28;;;;;;;11.20;10.27;;;;;;;;;;5075548;28;21001;-61
2023/09/29 05:08:57;;;;;;;11.73;10.73;;;;;;;;;;5075554;28;20450;-61
2023/09/29 05:11:25;;;;;;;20.10;13.20;;;;;;;;;;5075384;28;20443;-61
2023/09/29 05:13:52;;;;;;;12.03;10.30;;;;;;;;;;5075388;28;20546;-61
2023/09/29 05:16:20;;;;;;;13.20;11.87;;;;;;;;;;5075260;28;20471;-61
2023/09/29 05:18:47;;;;;;;12.33;11.20;;;;;;;;;;5075477;28;20530;-61
2023/09/29 05:21:14;;;;;;;11.20;10.27;;;;;;;;;;5075466;28;20542;-62
2023/09/29 05:23:43;;;;;;;10.70;9.70;;;;;;;;;;5075353;28;20443;-61
2023/09/29 05:26:11;;;;;;;12.03;10.80;;;;;;;;;;5075290;28;20452;-61
2023/09/29 05:28:38;;;;;;;11.00;10.17;;;;;;;;;;5075074;28;20439;-61
2023/09/29 05:31:05;;;;;;;11.37;10.30;;;;;;;;;;5075252;28;20538;-63
2023/09/29 05:33:34;;;;;;;11.90;10.73;;;;;;;;;;5075137;28;20539;-61
2023/09/29 05:36:01;;;;;;;12.27;10.87;;;;;;;;;;5075072;28;20447;-61
2023/09/29 05:38:30;;;;;;;14.20;10.70;;;;;;;;;;5074805;28;20888;-61
2023/09/29 05:40:57;;;;;;;13.30;10.03;;;;;;;;;;5074752;28;21010;-61
2023/09/29 05:43:26;;;;;;;14.07;10.87;;;;;;;;;;5074833;28;20443;-61
2023/09/29 05:45:53;;;;;;;12.77;11.57;;;;;;;;;;5074337;28;20931;-61
2023/09/29 05:48:19;;;;;;;13.53;11.93;;;;;;;;;;5074782;28;20454;-61
2023/09/29 05:50:48;;;;;;;12.80;11.57;;;;;;;;;;5074750;28;20505;-61
2023/09/29 05:53:15;;;;;;;12.47;11.17;;;;;;;;;;5074571;28;20969;-61
2023/09/29 05:55:43;;;;;;;12.70;10.70;;;;;;;;;;5074531;28;20534;-61
2023/09/29 05:58:10;;;;;;;12.83;10.63;;;;;;;;;;5074688;28;20483;-61
2023/09/29 06:00:38;;;;;;;11.10;10.10;;;;;;;;;;5074557;28;20534;-61
2023/09/29 06:03:05;;;;;;;10.97;10.03;;;;;;;;;;5074583;28;20941;-61
2023/09/29 06:05:32;;;;;;;13.37;10.97;;;;;;;;;;5074405;28;20444;-61
2023/09/29 06:08:01;;;;;;;10.90;9.87;;;;;;;;;;5074399;28;20454;-61
2023/09/29 06:10:28;;;;;;;12.27;11.03;;;;;;;;;;5074168;28;20534;-61
2023/09/29 06:12:55;;;;;;;13.10;11.67;;;;;;;;;;5074441;28;20541;-60
2023/09/29 06:15:22;;;;;;;12.27;10.77;;;;;;;;;;5074344;28;20465;-61
2023/09/29 06:17:50;;;;;;;11.90;10.70;;;;;;;;;;5074220;28;20511;-61
2023/09/29 06:20:20;;;;;;;13.30;11.83;;;;;;;;;;5074202;28;20558;-61
2023/09/29 06:22:46;;;;;;;11.73;10.63;;;;;;;;;;5073822;28;20450;-61
2023/09/29 06:25:13;;;;;;;11.87;10.77;;;;;;;;;;5074224;28;20538;-61
2023/09/29 06:27:41;;;;;;;11.27;10.10;;;;;;;;;;5074156;28;20448;-61
2023/09/29 06:30:08;;;;;;;13.17;11.80;;;;;;;;;;5074036;28;20502;-61
2023/09/29 06:32:35;;;;;;;13.47;10.80;;;;;;;;;;5073923;28;20530;-61
2023/09/29 06:35:03;;;;;;;12.20;11.00;;;;;;;;;;5073847;28;20530;-62
2023/09/29 06:37:30;;;;;;;11.43;10.33;;;;;;;;;;5073461;28;20487;-62
2023/09/29 06:39:57;;;;;;;11.63;10.73;;;;;;;;;;5073948;28;20526;-62
2023/09/29 06:42:24;;;;;;;10.57;9.77;;;;;;;;;;5073781;28;20450;-62
2023/09/29 06:44:51;;;;;;;12.33;11.23;;;;;;;;;;5073692;28;20538;-62
2023/09/29 06:47:18;;;;;;;11.93;10.90;;;;;;;;;;5073753;28;21004;-62
2023/09/29 06:49:44;;;;;;;11.40;10.50;;;;;;;;;;5073641;28;20534;-62
2023/09/29 06:52:13;;;;;;;11.57;10.37;;;;;;;;;;5073250;28;20538;-61
2023/09/29 06:54:39;;;;;;;11.63;10.07;;;;;;;;;;5073504;28;20531;-62
2023/09/29 06:57:06;;;;;;;11.13;10.10;;;;;;;;;;5072512;28;20554;-62
2023/09/29 06:59:33;;;;;;;10.63;9.73;;;;;;;;;;5073234;28;20530;-62
2023/09/29 07:02:00;;;;;;;11.60;10.70;;;;;;;;;;5073184;28;20538;-62
2023/09/29 07:04:27;;;;;;;13.33;10.37;;;;;;;;;;5073159;28;20530;-62
2023/09/29 07:06:54;;;;;;;12.00;10.70;;;;;;;;;;5073452;28;20443;-62
2023/09/29 07:09:22;;;;;;;10.30;9.40;;;;;;;;;;5073360;28;20494;-62
2023/09/29 07:11:50;;;;;;;11.13;10.00;;;;;;;;;;5073215;28;20539;-62
2023/09/29 07:14:17;;;;;;;10.43;9.40;;;;;;;;;;5072966;28;20522;-62
2023/09/29 07:16:49;;;;;;;9.93;8.63;;;;;;;;;;5072796;28;20939;-62
2023/09/29 07:19:16;;;;;;;10.40;9.57;;;;;;;;;;5073021;28;20443;-62
2023/09/29 07:21:43;;;;;;;9.90;9.00;;;;;;;;;;5073233;28;20530;-63
2023/09/29 07:24:10;;;;;;;9.23;8.33;;;;;;;;;;5073120;28;20544;-65
2023/09/29 07:26:39;;;;;;;11.40;10.40;;;;;;;;;;5072979;28;20952;-67
2023/09/29 07:29:06;;;;;;;10.93;9.93;;;;;;;;;;5072752;28;20963;-69
2023/09/29 07:31:36;;;;;;;9.80;9.07;;;;;;;;;;5072650;28;20451;-64
2023/09/29 07:34:03;;;;;;;10.07;9.13;;;;;;;;;;5072801;28;20538;-64
2023/09/29 07:36:31;;;;;;;10.07;9.20;;;;;;;;;;5072612;28;20966;-62
2023/09/29 07:38:58;;;;;;;10.83;9.80;;;;;;;;;;5072840;28;20483;-62
2023/09/29 07:41:26;;;;;;;11.00;8.97;;;;;;;;;;5072679;28;20942;-64
2023/09/29 07:43:54;;;;;;;9.37;8.30;;;;;;;;;;5072761;28;20444;-65
2023/09/29 07:46:21;;;;;;;9.93;9.00;;;;;;;;;;5072874;28;20539;-63
2023/09/29 07:48:48;;;;;;;8.70;7.90;;;;;;;;;;5072875;28;20471;-66
2023/09/29 07:51:15;;;;;;;7.87;7.17;;;;;;;;;;5072819;28;20454;-63
2023/09/29 07:53:42;;;;;;;9.10;7.27;;;;;;;;;;5072743;28;20443;-62
2023/09/29 07:56:08;;;;;;;7.00;6.47;;;;;;;;;;5072720;28;20531;-62
2023/09/29 07:58:36;;;;;;;9.77;8.10;;;;;;;;;;5072446;28;20481;-63
2023/09/29 08:01:04;;;;;;;8.70;8.00;;;;;;;;;;5072776;28;20483;-66
2023/09/29 08:03:31;;;;;;;8.60;8.00;;;;;;;;;;5072746;28;20534;-64
2023/09/29 08:05:58;;;;;;;12.00;9.80;;;;;;;;;;5072732;28;20530;-64
2023/09/29 08:08:25;;;;;;;11.27;7.30;;;;;;;;;;5074340;28;20447;-63
2023/09/29 08:10:52;;;;;;;8.20;7.70;;;;;;;;;;5076735;28;20835;-69
2023/09/29 08:13:19;;;;;;;7.63;6.93;;;;;;;;;;5076394;28;20493;-62
2023/09/29 08:15:47;;;;;;;7.80;7.10;;;;;;;;;;5076716;28;20439;-65
2023/09/29 08:18:16;;;;;;;7.70;7.00;;;;;;;;;;5076424;28;20483;-62
2023/09/29 08:20:44;;;;;;;7.87;7.17;;;;;;;;;;5076507;28;20534;-66
2023/09/29 08:23:11;;;;;;;7.63;6.30;;;;;;;;;;5076297;28;20449;-66
2023/09/29 08:25:39;;;;;;;7.83;6.53;;;;;;;;;;5076172;28;20534;-66
2023/09/29 08:28:06;;;;;;;6.53;5.93;;;;;;;;;;5076205;28;20848;-64
2023/09/29 08:30:33;;;;;;;7.43;6.80;;;;;;;;;;5076372;28;20487;-63
2023/09/29 08:33:00;;;;;;;6.20;5.70;;;;;;;;;;5076334;28;20500;-66
2023/09/29 08:35:28;;;;;;;7.50;6.77;;;;;;;;;;5076178;28;20478;-65
2023/09/29 08:37:56;;;;;;;6.63;6.13;;;;;;;;;;5075835;28;21016;-65
2023/09/29 08:40:23;;;;;;;6.53;5.93;;;;;;;;;;5075899;28;20938;-63
2023/09/29 08:42:50;;;;;;;6.67;6.17;;;;;;;;;;5076053;28;20475;-66
2023/09/29 08:45:17;;;;;;;7.07;6.43;;;;;;;;;;5075968;28;20534;-65
2023/09/29 08:47:47;;;;;;;7.20;6.60;;;;;;;;;;5075857;28;20443;-64
2023/09/29 08:50:14;;;;;;;9.00;6.90;;;;;;;;;;5075607;28;20633;-63
2023/09/29 08:52:44;;;;;;;6.20;5.60;;;;;;;;;;5075479;28;20526;-64
2023/09/29 08:55:12;;;;;;;6.83;6.20;;;;;;;;;;5075900;28;20450;-63
2023/09/29 08:57:41;;;;;;;7.83;6.63;;;;;;;;;;5075619;28;20567;-63
2023/09/29 09:00:12;;;;;;;6.40;5.90;;;;;;;;;;5075692;28;20439;-62
2023/09/29 09:02:41;;;;;;;6.10;5.50;;;;;;;;;;5075679;28;20443;-61
2023/09/29 09:05:10;;;;;;;6.00;5.50;;;;;;;;;;5075569;28;20884;-64
2023/09/29 09:07:37;;;;;;;7.23;5.87;;;;;;;;;;5075662;28;20478;-62
2023/09/29 09:10:07;;;;;;;8.20;5.47;;;;;;;;;;5075619;28;20543;-60
2023/09/29 09:12:34;;;;;;;6.43;5.73;;;;;;;;;;5075389;28;20443;-62
2023/09/29 09:15:03;;;;;;;6.00;5.50;;;;;;;;;;5075455;28;20467;-62
2023/09/29 09:17:30;;;;;;;6.43;5.90;;;;;;;;;;5075270;28;20497;-62
2023/09/29 09:19:57;;;;;;;6.27;5.77;;;;;;;;;;5074047;28;21000;-62
2023/09/29 09:22:27;;;;;;;6.00;5.47;;;;;;;;;;5075479;28;20450;-62
2023/09/29 09:24:58;;;;;;;7.40;5.80;;;;;;;;;;5075385;28;20451;-62
2023/09/29 09:27:27;;;;;;;6.20;5.70;;;;;;;;;;5075300;28;20813;-62
2023/09/29 09:29:54;;;;;;;6.40;5.90;;;;;;;;;;5074934;28;20449;-63
2023/09/29 09:32:27;;;;;;;8.00;7.40;;;;;;;;;;5074918;28;20455;-64
2023/09/29 09:34:54;;;;;;;7.37;6.83;;;;;;;;;;5075063;28;20458;-64
2023/09/29 09:37:25;;;;;;;7.13;6.53;;;;;;;;;;5074800;28;20868;-63
2023/09/29 09:39:53;;;;;;;8.07;5.27;;;;;;;;;;5074571;28;20534;-60
2023/09/29 09:42:22;;;;;;;5.10;4.70;;;;;;;;;;5074908;28;20527;-66
2023/09/29 09:44:50;;;;;;;6.07;5.67;;;;;;;;;;5074437;28;20534;-66
2023/09/29 09:47:17;;;;;;;8.47;6.10;;;;;;;;;;5074919;28;20938;-67
2023/09/29 09:49:47;;;;;;;6.53;6.03;;;;;;;;;;5074893;28;20530;-61
2023/09/29 09:52:19;;;;;;;6.60;5.27;;;;;;;;;;5074729;28;20439;-61
2023/09/29 09:54:47;;;;;;;6.27;5.77;;;;;;;;;;5074710;28;20530;-62
2023/09/29 09:57:18;;;;;;;5.30;4.90;;;;;;;;;;5074477;28;20535;-62
2023/09/29 09:59:46;;;;;;;6.10;5.60;;;;;;;;;;5074690;28;20474;-62
2023/09/29 10:02:14;;;;;;;5.77;5.37;;;;;;;;;;5074493;28;20542;-62
2023/09/29 10:04:43;;;;;;;5.30;5.00;;;;;;;;;;5074370;28;20986;-61
2023/09/29 10:07:11;;;;;;;4.93;4.67;;;;;;;;;;5074242;28;20989;-61
2023/09/29 10:09:43;;;;;;;5.50;5.20;;;;;;;;;;5074299;28;20501;-62
2023/09/29 10:12:10;;;;;;;5.27;4.77;;;;;;;;;;5074197;28;20447;-62
2023/09/29 10:14:42;;;;;;;5.20;4.80;;;;;;;;;;5074350;28;20864;-61
2023/09/29 10:17:12;;;;;;;5.00;4.70;;;;;;;;;;5074253;28;20447;-61
2023/09/29 10:19:41;;;;;;;6.17;5.57;;;;;;;;;;5074036;28;20525;-62
2023/09/29 10:22:08;;;;;;;6.90;5.33;;;;;;;;;;5073905;28;20893;-64
2023/09/29 10:24:35;;;;;;;6.20;5.20;;;;;;;;;;5073862;28;20927;-63
2023/09/29 10:27:05;;;;;;;5.80;5.20;;;;;;;;;;5074098;28;20454;-64
2023/09/29 10:29:34;;;;;;;7.93;5.40;;;;;;;;;;5074020;28;20494;-62
2023/09/29 10:32:10;;;;;;;5.53;5.03;;;;;;;;;;5073683;28;20508;-62
2023/09/29 10:34:37;;;;;;;5.50;5.00;;;;;;;;;;5073812;28;20489;-62
2023/09/29 10:37:06;;;;;;;5.97;5.47;;;;;;;;;;5073540;28;21033;-62
2023/09/29 10:39:33;;;;;;;5.33;4.97;;;;;;;;;;5073926;28;20540;-62
2023/09/29 10:42:04;;;;;;;5.80;5.30;;;;;;;;;;5073740;28;20454;-61
2023/09/29 10:44:31;;;;;;;5.43;5.00;;;;;;;;;;5073645;28;20470;-61
2023/09/29 10:46:59;;;;;;;4.87;4.47;;;;;;;;;;5073190;28;20439;-61
2023/09/29 10:49:34;;;;;;;5.17;4.57;;;;;;;;;;5073192;28;20438;-62
2023/09/29 10:52:01;;;;;;;5.60;5.20;;;;;;;;;;5073762;28;20443;-62
2023/09/29 10:54:29;;;;;;;5.50;5.10;;;;;;;;;;5073546;28;20543;-61
2023/09/29 10:56:56;;;;;;;5.13;4.63;;;;;;;;;;5073545;28;20545;-62
2023/09/29 10:59:23;;;;;;;5.50;5.00;;;;;;;;;;5073384;28;20569;-61
2023/09/29 11:01:51;;;;;;;5.30;4.90;;;;;;;;;;5073376;28;20458;-61
2023/09/29 11:04:18;;;;;;;5.93;5.50;;;;;;;;;;5073307;28;20439;-62
2023/09/29 11:06:46;;;;;;;9.73;5.27;;;;;;;;;;5073479;28;20577;-62
2023/09/29 11:09:17;;;;;;;4.93;4.47;;;;;;;;;;5073394;28;20811;-61
2023/09/29 11:11:45;;;;;;;5.53;4.33;;;;;;;;;;5073251;28;20448;-61
2023/09/29 11:14:12;;;;;;;5.43;4.43;;;;;;;;;;5073110;28;20954;-62
2023/09/29 11:16:39;;;;;;;9.77;4.83;;;;;;;;;;5073100;28;20451;-61
2023/09/29 11:19:11;;;;;;;4.77;4.40;;;;;;;;;;5073191;28;20505;-62
2023/09/29 11:21:39;;;;;;;5.07;4.70;;;;;;;;;;5073190;28;20459;-61
2023/09/29 11:24:06;;;;;;;5.20;4.70;;;;;;;;;;5073099;28;20444;-61
2023/09/29 11:26:34;;;;;;;6.40;5.23;;;;;;;;;;5073054;28;20443;-61
2023/09/29 11:29:03;;;;;;;5.87;4.93;;;;;;;;;;5072782;28;20443;-62
2023/09/29 11:31:30;;;;;;;4.77;4.37;;;;;;;;;;5073113;28;20447;-61
2023/09/29 11:33:57;;;;;;;5.00;4.60;;;;;;;;;;5073094;28;20451;-61
2023/09/29 11:36:27;;;;;;;4.90;3.97;;;;;;;;;;5072716;28;20534;-62
2023/09/29 11:38:54;;;;;;;4.67;4.27;;;;;;;;;;5072790;28;20518;-61
2023/09/29 11:41:22;;;;;;;5.97;5.37;;;;;;;;;;5072771;28;20950;-61
2023/09/29 11:43:49;;;;;;;8.10;5.40;;;;;;;;;;5072111;28;20454;-61
2023/09/29 11:46:18;;;;;;;6.17;5.60;;;;;;;;;;5072895;28;20450;-61
2023/09/29 11:48:46;;;;;;;4.50;4.20;;;;;;;;;;5072859;28;20542;-62
2023/09/29 11:51:14;;;;;;;8.93;5.30;;;;;;;;;;5072813;28;20440;-61
2023/09/29 11:53:42;;;;;;;8.30;5.50;;;;;;;;;;5072707;28;20444;-61
2023/09/29 11:56:09;;;;;;;4.87;4.50;;;;;;;;;;5072799;28;20501;-62
2023/09/29 11:58:37;;;;;;;4.87;4.47;;;;;;;;;;5072570;28;20979;-61
2023/09/29 12:01:06;;;;;;;4.70;4.23;;;;;;;;;;5072393;28;20984;-61
2023/09/29 12:03:34;;;;;;;4.83;4.43;;;;;;;;;;5072642;28;20447;-62
2023/09/29 12:06:02;;;;;;;5.93;5.37;;;;;;;;;;5072589;28;20443;-61
2023/09/29 12:08:29;;;;;;;5.30;4.90;;;;;;;;;;5072593;28;20981;-61
2023/09/29 12:10:57;;;;;;;4.70;4.27;;;;;;;;;;5072704;28;20922;-61
2023/09/29 12:13:24;;;;;;;5.53;5.00;;;;;;;;;;5072756;28;20439;-62
2023/09/29 12:15:50;;;;;;;8.10;4.80;;;;;;;;;;5072512;28;20526;-61
2023/09/29 12:18:17;;;;;;;4.53;4.20;;;;;;;;;;5072667;28;21002;-63
2023/09/29 12:20:46;;;;;;;5.00;4.53;;;;;;;;;;5072470;28;20439;-61
2023/09/29 12:23:13;;;;;;;6.13;4.80;;;;;;;;;;5072343;28;20807;-61
2023/09/29 12:25:40;;;;;;;5.30;4.80;;;;;;;;;;5072574;28;20443;-61
2023/09/29 12:28:07;;;;;;;4.83;4.47;;;;;;;;;;5072460;28;20533;-61
2023/09/29 12:30:35;;;;;;;7.50;4.80;;;;;;;;;;5072416;28;20451;-61
2023/09/29 12:33:03;;;;;;;5.20;4.90;;;;;;;;;;5072311;28;20539;-61
2023/09/29 12:35:31;;;;;;;4.67;4.10;;;;;;;;;;5072340;28;20443;-61
2023/09/29 12:37:59;;;;;;;6.47;4.23;;;;;;;;;;5072071;28;20562;-61
2023/09/29 12:40:27;;;;;;;5.37;5.07;;;;;;;;;;5072260;28;20485;-61
2023/09/29 12:42:54;;;;;;;5.33;4.93;;;;;;;;;;5072355;28;20443;-61
2023/09/29 12:45:23;;;;;;;4.53;4.23;;;;;;;;;;5072173;28;20475;-61
2023/09/29 12:47:51;;;;;;;5.03;4.53;;;;;;;;;;5072100;28;20443;-61
2023/09/29 12:50:18;;;;;;;5.53;5.03;;;;;;;;;;5072159;28;20435;-61
2023/09/29 12:52:45;;;;;;;5.23;4.93;;;;;;;;;;5072375;28;20450;-61
2023/09/29 12:55:14;;;;;;;5.07;4.67;;;;;;;;;;5075002;28;20451;-61
2023/09/29 12:57:43;;;;;;;4.90;4.60;;;;;;;;;;5075789;28;20454;-61
2023/09/29 13:00:16;;;;;;;5.03;4.63;;;;;;;;;;5075696;28;20482;-61
2023/09/29 13:02:43;;;;;;;6.10;4.47;;;;;;;;;;5075735;28;20443;-61
2023/09/29 13:05:11;;;;;;;5.10;4.80;;;;;;;;;;5075625;28;20791;-61
2023/09/29 13:07:37;;;;;;;4.97;4.57;;;;;;;;;;5075500;28;20994;-61
2023/09/29 13:10:05;;;;;;;4.87;4.43;;;;;;;;;;5075620;28;20559;-61
2023/09/29 13:12:33;;;;;;;8.07;4.97;;;;;;;;;;5075618;28;20528;-61
2023/09/29 13:15:00;;;;;;;5.30;5.00;;;;;;;;;;5075431;28;20887;-61
2023/09/29 13:17:28;;;;;;;5.03;4.53;;;;;;;;;;5075280;28;20446;-61
2023/09/29 13:19:55;;;;;;;4.77;4.37;;;;;;;;;;5075149;28;21009;-61
2023/09/29 13:22:21;;;;;;;4.73;4.43;;;;;;;;;;5075489;28;20530;-61
2023/09/29 13:24:49;;;;;;;4.60;4.30;;;;;;;;;;5075448;28;20531;-61
2023/09/29 13:27:15;;;;;;;5.27;4.90;;;;;;;;;;5075129;28;20542;-61
2023/09/29 13:29:44;;;;;;;4.40;4.17;;;;;;;;;;5074891;28;20935;-61
2023/09/29 13:32:11;;;;;;;5.23;4.70;;;;;;;;;;5075050;28;20448;-61
2023/09/29 13:34:38;;;;;;;4.87;4.50;;;;;;;;;;5075209;28;20444;-61
2023/09/29 13:37:05;;;;;;;5.20;4.33;;;;;;;;;;5074924;28;20566;-61
2023/09/29 13:39:32;;;;;;;4.93;4.50;;;;;;;;;;5074993;28;20574;-62
2023/09/29 13:41:59;;;;;;;5.63;5.23;;;;;;;;;;5074995;28;20448;-61
2023/09/29 13:44:26;;;;;;;4.53;4.10;;;;;;;;;;5074615;28;21030;-62
2023/09/29 13:46:54;;;;;;;5.97;4.97;;;;;;;;;;5074963;28;20449;-61
2023/09/29 13:49:21;;;;;;;4.90;4.47;;;;;;;;;;5074994;28;20540;-61
2023/09/29 13:51:48;;;;;;;6.50;5.37;;;;;;;;;;5074868;28;21020;-61
2023/09/29 13:54:15;;;;;;;11.03;5.00;;;;;;;;;;5075170;28;20448;-61
2023/09/29 13:56:42;;;;;;;5.30;5.00;;;;;;;;;;5074673;28;20498;-61
2023/09/29 13:59:08;;;;;;;7.23;5.70;;;;;;;;;;5074520;28;20532;-62
2023/09/29 14:01:35;;;;;;;6.07;5.57;;;;;;;;;;5074708;28;20983;-62
2023/09/29 14:04:05;;;;;;;6.07;5.67;;;;;;;;;;5075015;28;20448;-63
2023/09/29 14:06:32;;;;;;;7.63;4.77;;;;;;;;;;5074019;28;20539;-61
2023/09/29 14:08:59;;;;;;;6.37;5.87;;;;;;;;;;5074704;28;20855;-61
2023/09/29 14:11:26;;;;;;;6.90;6.33;;;;;;;;;;5074808;28;20447;-60
2023/09/29 14:13:53;;;;;;;6.50;5.90;;;;;;;;;;5074185;28;20444;-60
2023/09/29 14:16:20;;;;;;;5.87;5.47;;;;;;;;;;5074522;28;20475;-61
2023/09/29 14:18:48;;;;;;;6.10;5.50;;;;;;;;;;5074366;28;20542;-61
2023/09/29 14:21:16;;;;;;;6.60;6.00;;;;;;;;;;5074277;28;20534;-61
2023/09/29 14:23:43;;;;;;;6.40;6.00;;;;;;;;;;5074102;28;20451;-61
2023/09/29 14:26:12;;;;;;;7.07;6.47;;;;;;;;;;5074007;28;20864;-61
2023/09/29 14:28:38;;;;;;;6.67;6.17;;;;;;;;;;5074215;28;20803;-61
2023/09/29 14:31:05;;;;;;;7.07;6.37;;;;;;;;;;5074125;28;20449;-62
2023/09/29 14:33:32;;;;;;;7.20;6.60;;;;;;;;;;5074065;28;20825;-61